Time;durP1;ratioP1;P1;durP2;ratioP2;P2;SDS_P1;SDS_P2;PMS_P1;PMS_P2;Temp;Humidity;BMP_temperature;BMP_pressure;BME280_temperature;BME280_humidity;BME280_pressure;Samples;Min_cycle;Max_cycle;Signal;HPM_P1;HPM_P2
2021/04/18 00:02:14;;;;;;;12.40;9.60;;;4.60;99.90;;;;;;5034815;28;20041;-68
2021/04/18 00:04:44;;;;;;;12.90;8.48;;;4.60;99.90;;;;;;5038249;28;20156;-68
2021/04/18 00:07:11;;;;;;;19.27;11.05;;;4.60;99.90;;;;;;5049631;28;20555;-68
2021/04/18 00:09:39;;;;;;;17.83;10.48;;;4.60;99.90;;;;;;5050141;28;20120;-67
2021/04/18 00:12:07;;;;;;;34.42;14.10;;;4.60;99.90;;;;;;5051432;28;20569;-68
2021/04/18 00:14:34;;;;;;;21.65;10.95;;;4.60;99.90;;;;;;5052274;28;20076;-68
2021/04/18 00:17:01;;;;;;;14.25;9.85;;;4.60;99.90;;;;;;5050072;28;20056;-68
2021/04/18 00:19:30;;;;;;;14.52;8.38;;;4.60;99.90;;;;;;5051705;28;20049;-67
2021/04/18 00:21:57;;;;;;;12.75;9.90;;;4.60;99.90;;;;;;5050048;28;20053;-67
2021/04/18 00:24:24;;;;;;;13.88;9.48;;;4.70;99.90;;;;;;5043514;28;20046;-67
2021/04/18 00:26:52;;;;;;;10.98;8.85;;;4.60;99.90;;;;;;5050722;28;20053;-68
2021/04/18 00:29:20;;;;;;;11.60;9.38;;;4.60;99.90;;;;;;5050137;28;20539;-68
2021/04/18 00:31:47;;;;;;;11.18;8.73;;;4.60;99.90;;;;;;5045913;28;20534;-67
2021/04/18 00:34:15;;;;;;;17.75;9.52;;;4.60;99.90;;;;;;5037737;28;20109;-67
2021/04/18 00:36:42;;;;;;;16.33;9.50;;;4.60;99.90;;;;;;5048886;28;20057;-69
2021/04/18 00:39:09;;;;;;;14.52;10.00;;;4.60;99.90;;;;;;5047999;28;20049;-67
2021/04/18 00:41:36;;;;;;;16.13;10.30;;;4.60;99.90;;;;;;5049352;28;20045;-68
2021/04/18 00:44:03;;;;;;;13.60;9.93;;;4.60;99.90;;;;;;5054777;28;20136;-68
2021/04/18 00:46:31;;;;;;;14.25;9.23;;;4.50;99.90;;;;;;5056949;28;20129;-68
2021/04/18 00:48:58;;;;;;;13.63;9.38;;;4.60;99.90;;;;;;5053763;28;20499;-68
2021/04/18 00:51:28;;;;;;;13.45;9.55;;;4.60;99.90;;;;;;5053685;28;20064;-68
2021/04/18 00:53:56;;;;;;;16.33;10.30;;;4.50;99.90;;;;;;5049898;28;20048;-68
2021/04/18 00:56:24;;;;;;;13.68;10.38;;;4.50;99.90;;;;;;5042782;28;20061;-67
2021/04/18 00:58:51;;;;;;;15.20;10.60;;;4.50;99.90;;;;;;5053440;28;20049;-67
2021/04/18 01:01:19;;;;;;;13.55;10.52;;;4.50;99.90;;;;;;5050455;28;20042;-67
2021/04/18 01:03:46;;;;;;;14.98;10.15;;;4.50;99.90;;;;;;5050739;28;20380;-67
2021/04/18 01:06:13;;;;;;;14.80;10.20;;;4.50;99.90;;;;;;5051025;28;20422;-67
2021/04/18 01:08:46;;;;;;;;;;;4.50;99.90;;;;;;5053140;28;20108;-67
2021/04/18 01:11:13;;;;;;;16.67;10.25;;;4.50;99.90;;;;;;5053259;28;20287;-67
2021/04/18 01:13:41;;;;;;;14.95;10.52;;;4.50;99.90;;;;;;5052684;28;20047;-67
2021/04/18 01:16:09;;;;;;;15.45;10.73;;;4.50;99.90;;;;;;5046583;28;20533;-67
2021/04/18 01:18:36;;;;;;;17.23;11.50;;;4.50;99.90;;;;;;5047302;28;20080;-67
2021/04/18 01:21:08;;;;;;;13.90;10.93;;;4.50;99.90;;;;;;5048461;28;20233;-67
2021/04/18 01:23:44;;;;;;;15.25;10.65;;;4.50;99.90;;;;;;5039981;28;20508;-67
2021/04/18 01:26:33;;;;;;;15.57;11.15;;;4.50;99.90;;;;;;5046723;28;20051;-68
2021/04/18 01:29:00;;;;;;;16.55;11.70;;;4.50;99.90;;;;;;5052400;28;20080;-68
2021/04/18 01:31:27;;;;;;;17.05;11.82;;;4.50;99.90;;;;;;5051002;28;20073;-67
2021/04/18 01:33:55;;;;;;;16.58;11.63;;;4.50;99.90;;;;;;5041066;28;20107;-67
2021/04/18 01:36:24;;;;;;;14.73;11.10;;;4.50;99.90;;;;;;5054060;28;20123;-67
2021/04/18 01:38:52;;;;;;;16.25;11.88;;;4.50;99.90;;;;;;5052759;28;20132;-67
2021/04/18 01:41:19;;;;;;;16.00;11.65;;;4.40;99.90;;;;;;5086656;28;20064;-67
2021/04/18 01:43:47;;;;;;;15.23;11.43;;;4.40;99.90;;;;;;5053671;28;20049;-67
2021/04/18 01:46:14;;;;;;;17.33;11.25;;;4.40;99.90;;;;;;5061083;28;20063;-67
2021/04/18 01:48:42;;;;;;;15.32;11.20;;;4.40;99.90;;;;;;5051573;28;20389;-66
2021/04/18 01:51:10;;;;;;;16.98;11.75;;;4.40;99.90;;;;;;5053610;28;20048;-66
2021/04/18 01:53:38;;;;;;;14.00;11.35;;;4.40;99.90;;;;;;5050545;28;20045;-66
2021/04/18 01:56:07;;;;;;;15.00;12.13;;;4.40;99.90;;;;;;5051873;28;20060;-68
2021/04/18 01:58:37;;;;;;;16.58;11.80;;;4.40;99.90;;;;;;5051116;28;20045;-68
2021/04/18 02:01:08;;;;;;;15.60;11.65;;;4.40;99.90;;;;;;5051240;28;20132;-68
2021/04/18 02:03:38;;;;;;;16.83;12.60;;;4.40;99.90;;;;;;5085545;28;20404;-68
2021/04/18 02:06:09;;;;;;;17.42;12.57;;;4.30;99.90;;;;;;5051393;28;20045;-68
2021/04/18 02:08:45;;;;;;;17.10;10.85;;;4.40;99.90;;;;;;5052370;28;20045;-68
2021/04/18 02:11:15;;;;;;;16.40;11.10;;;4.40;99.90;;;;;;5051935;28;20037;-68
2021/04/18 02:13:42;;;;;;;16.77;12.15;;;4.40;99.90;;;;;;5051047;28;20048;-68
2021/04/18 02:16:27;;;;;;;15.60;12.05;;;4.40;99.90;;;;;;5050731;28;20049;-67
2021/04/18 02:19:03;;;;;;;16.13;11.43;;;4.30;99.90;;;;;;5052147;28;20470;-67
2021/04/18 02:21:33;;;;;;;17.85;12.80;;;4.30;99.90;;;;;;5052219;28;20069;-66
2021/04/18 02:24:01;;;;;;;16.25;12.18;;;4.30;99.90;;;;;;5083929;28;20122;-67
2021/04/18 02:26:30;;;;;;;18.15;12.48;;;4.30;99.90;;;;;;5051119;28;20045;-67
2021/04/18 02:28:57;;;;;;;16.05;12.45;;;4.30;99.90;;;;;;5052360;28;20037;-67
2021/04/18 02:31:26;;;;;;;16.13;11.55;;;4.30;99.90;;;;;;5034914;28;20052;-68
2021/04/18 02:33:54;;;;;;;17.30;13.00;;;4.30;99.90;;;;;;5044634;28;20045;-68
2021/04/18 02:36:21;;;;;;;16.85;12.10;;;4.30;99.90;;;;;;5050942;28;20045;-67
2021/04/18 02:38:49;;;;;;;16.92;12.05;;;4.30;99.90;;;;;;5051226;28;20060;-68
2021/04/18 02:41:16;;;;;;;18.40;11.75;;;4.30;99.90;;;;;;5051380;28;20048;-67
2021/04/18 02:43:43;;;;;;;15.60;11.55;;;4.30;99.90;;;;;;5052500;28;20053;-67
2021/04/18 02:46:10;;;;;;;15.85;12.10;;;4.30;99.90;;;;;;5059149;28;20051;-67
2021/04/18 02:48:37;;;;;;;14.32;10.45;;;4.30;99.90;;;;;;5051659;28;20055;-67
2021/04/18 02:51:04;;;;;;;18.10;12.88;;;4.30;99.90;;;;;;5050570;28;20479;-68
2021/04/18 02:53:34;;;;;;;16.95;11.95;;;4.40;99.90;;;;;;5048255;28;20044;-67
2021/04/18 02:56:03;;;;;;;19.27;12.98;;;4.40;99.90;;;;;;5047295;28;20148;-67
2021/04/18 02:58:41;;;;;;;16.67;11.70;;;4.40;99.90;;;;;;5050044;28;20048;-67
2021/04/18 03:01:09;;;;;;;17.77;11.85;;;4.40;99.90;;;;;;5049518;28;20511;-67
2021/04/18 03:03:39;;;;;;;18.92;12.30;;;4.40;99.90;;;;;;5052183;28;20167;-67
2021/04/18 03:06:07;;;;;;;16.63;12.65;;;4.30;99.90;;;;;;5049799;28;20049;-68
2021/04/18 03:08:35;;;;;;;18.20;12.13;;;4.30;99.90;;;;;;5051951;28;20048;-67
2021/04/18 03:11:03;;;;;;;15.88;11.75;;;4.40;99.90;;;;;;5049888;28;20470;-67
2021/04/18 03:13:31;;;;;;;17.50;11.93;;;4.40;99.90;;;;;;5051389;28;20045;-67
2021/04/18 03:15:59;;;;;;;15.13;12.13;;;4.40;99.90;;;;;;5049546;28;20530;-69
2021/04/18 03:18:26;;;;;;;16.75;11.23;;;4.40;99.90;;;;;;5082394;28;20049;-68
2021/04/18 03:20:53;;;;;;;16.33;12.55;;;4.30;99.90;;;;;;5043162;28;20049;-68
2021/04/18 03:23:25;;;;;;;16.00;11.55;;;4.30;99.90;;;;;;5042769;28;20067;-67
2021/04/18 03:25:55;;;;;;;15.35;11.75;;;4.30;99.90;;;;;;5048855;28;20045;-68
2021/04/18 03:28:22;;;;;;;16.98;11.80;;;4.30;99.90;;;;;;5050413;28;20052;-67
2021/04/18 03:30:54;;;;;;;16.13;12.18;;;4.30;99.90;;;;;;5048459;28;20210;-67
2021/04/18 03:33:24;;;;;;;16.33;11.98;;;4.40;99.90;;;;;;5050463;28;20400;-67
2021/04/18 03:36:02;;;;;;;18.30;12.68;;;4.30;99.90;;;;;;5049361;28;20077;-67
2021/04/18 03:38:31;;;;;;;18.30;11.77;;;4.40;99.90;;;;;;5051424;28;20056;-67
2021/04/18 03:40:58;;;;;;;17.33;13.00;;;4.50;99.90;;;;;;5042449;28;20045;-68
2021/04/18 03:43:25;;;;;;;16.63;11.45;;;4.40;99.90;;;;;;5043037;28;20503;-68
2021/04/18 03:45:55;;;;;;;16.02;11.88;;;4.40;99.90;;;;;;5050634;28;20136;-68
2021/04/18 03:48:26;;;;;;;18.17;12.33;;;4.40;99.90;;;;;;5049537;28;20045;-68
2021/04/18 03:50:53;;;;;;;15.65;11.48;;;4.40;99.90;;;;;;5048137;28;20048;-68
2021/04/18 03:53:23;;;;;;;16.63;12.00;;;4.40;99.90;;;;;;5051477;28;20444;-68
2021/04/18 03:55:58;;;;;;;19.13;12.05;;;4.40;99.90;;;;;;5047759;28;20056;-68
2021/04/18 03:58:32;;;;;;;14.98;10.95;;;4.40;99.90;;;;;;5048817;28;20116;-68
2021/04/18 04:01:04;;;;;;;18.23;11.93;;;4.40;99.90;;;;;;5050523;28;20132;-68
2021/04/18 04:03:33;;;;;;;18.33;12.43;;;4.40;99.90;;;;;;5048552;28;20036;-68
2021/04/18 04:06:02;;;;;;;16.85;12.65;;;4.40;99.90;;;;;;5046166;28;20474;-68
2021/04/18 04:08:32;;;;;;;17.35;12.88;;;4.40;99.90;;;;;;5049675;28;20128;-68
2021/04/18 04:11:00;;;;;;;16.17;12.60;;;4.40;99.90;;;;;;5044884;28;20066;-68
2021/04/18 04:13:29;;;;;;;19.40;12.48;;;4.40;99.90;;;;;;5047781;28;20067;-68
2021/04/18 04:16:00;;;;;;;17.08;13.18;;;4.40;99.90;;;;;;5049507;28;20123;-68
2021/04/18 04:18:28;;;;;;;16.88;12.70;;;4.40;99.90;;;;;;5052834;28;20051;-68
2021/04/18 04:21:05;;;;;;;19.65;13.10;;;4.40;99.90;;;;;;5048164;28;20057;-68
2021/04/18 04:23:51;;;;;;;17.88;12.90;;;4.40;99.90;;;;;;5055102;28;20052;-68
2021/04/18 04:26:18;;;;;;;18.13;12.90;;;4.40;99.90;;;;;;5052894;28;20053;-67
2021/04/18 04:28:44;;;;;;;16.98;11.77;;;4.40;99.90;;;;;;5053056;28;20068;-67
2021/04/18 04:31:11;;;;;;;17.33;12.82;;;4.30;99.90;;;;;;5053500;28;20052;-68
2021/04/18 04:33:38;;;;;;;17.05;12.93;;;4.40;99.90;;;;;;5043913;28;20050;-68
2021/04/18 04:36:06;;;;;;;19.30;13.68;;;4.40;99.90;;;;;;5053060;28;20056;-67
2021/04/18 04:38:34;;;;;;;16.55;12.48;;;4.40;99.90;;;;;;5053724;28;20071;-67
2021/04/18 04:41:01;;;;;;;16.88;12.77;;;4.50;99.90;;;;;;5050757;28;20059;-67
2021/04/18 04:43:28;;;;;;;17.55;12.43;;;4.50;99.90;;;;;;5051486;28;20045;-67
2021/04/18 04:45:55;;;;;;;18.40;11.70;;;4.50;99.90;;;;;;5063514;28;20045;-67
2021/04/18 04:48:22;;;;;;;17.63;11.57;;;4.50;99.90;;;;;;5043046;28;20045;-67
2021/04/18 04:50:50;;;;;;;18.75;12.45;;;4.50;99.90;;;;;;5051933;28;20044;-67
2021/04/18 04:53:17;;;;;;;16.35;11.30;;;4.50;99.90;;;;;;5052521;28;20095;-67
2021/04/18 04:55:46;;;;;;;16.95;12.20;;;4.50;99.90;;;;;;5042527;28;20049;-67
2021/04/18 04:58:14;;;;;;;17.60;12.18;;;4.60;99.90;;;;;;5052148;28;20456;-67
2021/04/18 05:00:41;;;;;;;15.57;11.73;;;4.60;99.90;;;;;;5051673;28;20098;-67
2021/04/18 05:03:09;;;;;;;17.27;12.00;;;4.70;99.90;;;;;;5052969;28;20517;-67
2021/04/18 05:05:36;;;;;;;17.83;12.35;;;4.60;99.90;;;;;;5051559;28;20041;-67
2021/04/18 05:08:03;;;;;;;16.70;11.15;;;4.60;99.90;;;;;;5051804;28;20045;-67
2021/04/18 05:10:30;;;;;;;18.70;11.43;;;4.70;99.90;;;;;;5052848;28;20049;-67
2021/04/18 05:12:57;;;;;;;17.80;12.00;;;4.70;99.90;;;;;;5052192;28;20784;-67
2021/04/18 05:15:24;;;;;;;16.48;11.75;;;4.70;99.90;;;;;;5052626;28;20140;-67
2021/04/18 05:17:51;;;;;;;18.98;13.00;;;4.80;99.90;;;;;;5050784;28;20057;-67
2021/04/18 05:20:20;;;;;;;16.52;11.90;;;4.80;99.90;;;;;;5051890;28;20590;-67
2021/04/18 05:22:46;;;;;;;17.45;12.38;;;4.80;99.90;;;;;;5050857;28;20073;-67
2021/04/18 05:25:15;;;;;;;18.30;12.23;;;4.80;99.90;;;;;;5051723;28;20045;-67
2021/04/18 05:27:43;;;;;;;17.27;12.45;;;4.90;99.90;;;;;;5045437;28;20119;-67
2021/04/18 05:30:10;;;;;;;18.40;12.77;;;4.90;99.90;;;;;;5043867;28;20049;-67
2021/04/18 05:32:37;;;;;;;17.38;13.13;;;5.00;99.90;;;;;;5048672;28;20080;-67
2021/04/18 05:35:11;;;;;;;16.73;12.18;;;5.00;99.90;;;;;;5048067;28;20527;-67
2021/04/18 05:37:38;;;;;;;19.02;12.60;;;5.00;99.90;;;;;;5051382;28;20045;-68
2021/04/18 05:40:05;;;;;;;14.65;11.70;;;5.10;99.90;;;;;;5046894;28;20188;-68
2021/04/18 05:42:32;;;;;;;16.52;12.00;;;5.20;99.90;;;;;;5044682;28;20041;-67
2021/04/18 05:44:59;;;;;;;18.35;12.20;;;5.30;99.90;;;;;;5062971;28;20134;-67
2021/04/18 05:47:27;;;;;;;19.17;12.55;;;5.30;99.90;;;;;;5052056;28;20041;-67
2021/04/18 05:49:55;;;;;;;18.25;12.52;;;5.30;99.90;;;;;;5051837;28;20072;-67
2021/04/18 05:52:22;;;;;;;16.33;11.50;;;5.40;99.90;;;;;;5051136;28;20045;-67
2021/04/18 05:54:51;;;;;;;15.38;11.60;;;5.50;99.90;;;;;;5052583;28;20538;-67
2021/04/18 05:57:19;;;;;;;17.70;12.25;;;5.70;99.90;;;;;;5040966;28;20057;-67
2021/04/18 05:59:47;;;;;;;16.27;12.00;;;5.80;99.90;;;;;;5050405;28;20106;-66
2021/04/18 06:02:14;;;;;;;16.90;12.40;;;5.90;99.90;;;;;;5051562;28;20135;-67
2021/04/18 06:04:41;;;;;;;16.52;12.38;;;5.80;99.90;;;;;;5050870;28;20044;-67
2021/04/18 06:07:08;;;;;;;17.05;12.10;;;5.90;99.90;;;;;;5052809;28;20507;-67
2021/04/18 06:09:35;;;;;;;15.25;11.70;;;6.00;99.90;;;;;;5050053;28;20102;-66
2021/04/18 06:12:02;;;;;;;17.05;12.48;;;6.10;99.90;;;;;;5050618;28;20484;-67
2021/04/18 06:14:29;;;;;;;15.90;11.85;;;6.10;99.90;;;;;;5050460;28;20450;-67
2021/04/18 06:16:56;;;;;;;18.33;12.80;;;6.10;99.90;;;;;;5051672;28;20179;-67
2021/04/18 06:19:31;;;;;;;18.55;13.30;;;6.20;99.90;;;;;;5052705;28;20132;-67
2021/04/18 06:21:58;;;;;;;15.75;13.13;;;6.20;99.90;;;;;;5052012;28;20059;-67
2021/04/18 06:24:25;;;;;;;18.40;13.00;;;6.20;99.90;;;;;;5050275;28;20041;-67
2021/04/18 06:26:52;;;;;;;18.80;13.43;;;6.20;99.90;;;;;;5051380;28;20052;-67
2021/04/18 06:29:19;;;;;;;16.52;12.52;;;6.30;99.90;;;;;;5051306;28;20069;-67
2021/04/18 06:31:46;;;;;;;18.92;13.35;;;6.30;99.90;;;;;;5051405;28;20078;-67
2021/04/18 06:34:13;;;;;;;16.63;12.73;;;6.40;99.90;;;;;;5050505;28;20409;-67
2021/04/18 06:36:40;;;;;;;19.35;13.40;;;6.50;99.90;;;;;;5051162;28;20049;-67
2021/04/18 06:39:07;;;;;;;19.02;13.32;;;6.60;99.90;;;;;;5045117;28;20045;-67
2021/04/18 06:41:36;;;;;;;17.50;12.77;;;6.60;99.90;;;;;;5047721;28;20123;-67
2021/04/18 06:44:03;;;;;;;15.80;12.02;;;6.80;99.90;;;;;;5053824;28;20048;-66
2021/04/18 06:46:32;;;;;;;17.35;13.05;;;7.00;99.90;;;;;;5050773;28;20064;-67
2021/04/18 06:48:59;;;;;;;18.38;13.27;;;7.20;99.90;;;;;;5050213;28;20057;-66
2021/04/18 06:51:26;;;;;;;19.95;13.05;;;7.40;99.90;;;;;;5050945;28;20103;-66
2021/04/18 06:53:53;;;;;;;19.17;12.38;;;7.50;99.90;;;;;;5048916;28;20057;-67
2021/04/18 06:56:20;;;;;;;16.95;12.93;;;7.60;99.90;;;;;;5049952;28;20053;-66
2021/04/18 06:59:00;;;;;;;14.88;12.10;;;7.60;99.90;;;;;;5050070;28;20371;-67
2021/04/18 07:01:27;;;;;;;16.10;12.73;;;7.80;99.90;;;;;;5039707;28;20104;-67
2021/04/18 07:04:16;;;;;;;17.50;12.50;;;7.90;99.90;;;;;;5050604;28;20476;-67
2021/04/18 07:06:53;;;;;;;18.42;12.80;;;8.00;99.90;;;;;;5044045;28;20064;-66
2021/04/18 07:09:24;;;;;;;18.15;14.25;;;8.00;99.90;;;;;;5050618;28;20083;-66
2021/04/18 07:11:53;;;;;;;20.02;14.25;;;7.80;99.90;;;;;;5049510;28;20069;-66
2021/04/18 07:14:31;;;;;;;18.95;13.07;;;7.70;99.90;;;;;;5050665;28;20064;-67
2021/04/18 07:17:14;;;;;;;16.35;12.93;;;8.00;99.90;;;;;;5048121;28;20110;-66
2021/04/18 07:19:44;;;;;;;16.52;13.55;;;8.10;99.90;;;;;;5050730;28;20052;-66
2021/04/18 07:22:11;;;;;;;18.85;13.18;;;8.20;99.90;;;;;;5049554;28;20455;-67
2021/04/18 07:24:56;;;;;;;18.80;14.23;;;8.20;99.90;;;;;;5046814;28;20090;-67
2021/04/18 07:27:23;;;;;;;18.27;14.10;;;8.20;99.90;;;;;;5048505;28;20051;-66
2021/04/18 07:29:56;;;;;;;16.40;13.75;;;8.50;99.90;;;;;;5048002;28;20049;-67
2021/04/18 07:32:30;;;;;;;18.13;14.10;;;8.80;99.90;;;;;;5072150;28;20099;-67
2021/04/18 07:35:04;;;;;;;17.40;13.90;;;9.00;99.90;;;;;;5046448;28;20049;-67
2021/04/18 07:37:33;;;;;;;20.33;15.52;;;9.00;99.90;;;;;;5047618;28;20060;-67
2021/04/18 07:40:05;;;;;;;19.25;14.55;;;8.80;99.90;;;;;;5050262;28;20399;-67
2021/04/18 07:42:40;;;;;;;19.83;14.77;;;8.60;99.90;;;;;;5045625;28;20622;-67
2021/04/18 07:45:16;;;;;;;21.00;14.60;;;8.60;99.90;;;;;;5049624;28;20048;-66
2021/04/18 07:47:45;;;;;;;19.25;15.45;;;8.70;99.90;;;;;;5046935;28;20571;-66
2021/04/18 07:50:15;;;;;;;19.30;15.30;;;8.80;99.90;;;;;;5043429;28;20529;-66
2021/04/18 07:52:44;;;;;;;19.35;14.65;;;9.10;99.90;;;;;;5048626;28;20049;-68
2021/04/18 07:55:13;;;;;;;22.80;15.38;;;9.30;99.90;;;;;;5048596;28;20057;-68
2021/04/18 07:57:41;;;;;;;20.88;15.23;;;9.40;99.90;;;;;;5049388;28;20072;-68
2021/04/18 08:00:10;;;;;;;19.90;16.10;;;9.60;99.90;;;;;;5050051;28;20095;-68
2021/04/18 08:02:47;;;;;;;17.88;15.35;;;9.40;99.90;;;;;;5048692;28;20049;-68
2021/04/18 08:05:16;;;;;;;25.42;17.10;;;9.60;99.90;;;;;;5043321;28;20053;-68
2021/04/18 08:08:14;;;;;;;20.42;16.23;;;9.60;99.90;;;;;;5048552;28;20044;-68
2021/04/18 08:10:46;;;;;;;20.77;15.60;;;9.90;99.90;;;;;;5047878;28;20068;-67
2021/04/18 08:13:14;;;;;;;20.00;16.45;;;10.30;99.90;;;;;;5047333;28;20049;-68
2021/04/18 08:15:53;;;;;;;26.58;18.13;;;10.30;99.90;;;;;;5039914;28;20104;-67
2021/04/18 08:18:29;;;;;;;23.70;18.45;;;10.10;99.90;;;;;;5043052;28;20045;-67
2021/04/18 08:20:58;;;;;;;22.27;18.23;;;10.30;99.90;;;;;;5045178;28;20068;-67
2021/04/18 08:23:40;;;;;;;22.45;17.48;;;10.60;99.90;;;;;;5051013;28;20131;-67
2021/04/18 08:26:15;;;;;;;19.35;16.58;;;10.60;99.90;;;;;;5050648;28;20052;-67
2021/04/18 08:28:52;;;;;;;20.48;16.90;;;10.70;99.90;;;;;;5051354;28;20049;-68
2021/04/18 08:31:31;;;;;;;33.30;18.20;;;10.70;99.90;;;;;;5049115;28;20053;-68
2021/04/18 08:34:05;;;;;;;24.00;18.42;;;10.90;99.90;;;;;;5051506;28;20445;-68
2021/04/18 08:36:34;;;;;;;25.40;18.63;;;10.80;99.90;;;;;;5049500;28;20079;-68
2021/04/18 08:39:05;;;;;;;22.50;16.80;;;10.90;99.90;;;;;;5050300;28;20041;-68
2021/04/18 08:41:43;;;;;;;22.83;18.58;;;11.00;99.90;;;;;;5046318;28;20100;-68
2021/04/18 08:44:25;;;;;;;23.00;17.25;;;11.00;99.90;;;;;;5037664;28;20496;-68
2021/04/18 08:47:06;;;;;;;20.40;17.27;;;11.00;99.90;;;;;;5032247;28;20054;-68
2021/04/18 08:49:36;;;;;;;25.08;18.02;;;10.80;99.90;;;;;;5049459;28;20049;-68
2021/04/18 08:52:05;;;;;;;24.92;17.48;;;10.70;99.90;;;;;;5049944;28;20068;-68
2021/04/18 08:54:38;;;;;;;22.42;17.92;;;10.90;99.90;;;;;;5048371;28;20048;-68
2021/04/18 08:57:10;;;;;;;21.23;17.48;;;11.00;99.90;;;;;;5025898;28;20434;-68
2021/04/18 08:59:39;;;;;;;20.70;16.75;;;11.20;99.90;;;;;;5041701;28;20107;-68
2021/04/18 09:02:10;;;;;;;20.27;17.55;;;11.30;99.90;;;;;;5050513;28;20060;-68
2021/04/18 09:04:43;;;;;;;19.73;17.10;;;11.40;99.90;;;;;;5050561;28;20094;-68
2021/04/18 09:07:13;;;;;;;21.75;18.25;;;11.20;99.90;;;;;;5052162;28;20451;-68
2021/04/18 09:09:41;;;;;;;21.50;17.05;;;11.30;99.90;;;;;;5051047;28;20057;-68
2021/04/18 09:12:09;;;;;;;22.23;17.55;;;11.20;99.90;;;;;;5050714;28;20430;-67
2021/04/18 09:14:41;;;;;;;20.88;16.00;;;11.40;99.90;;;;;;5035136;28;20063;-67
2021/04/18 09:17:22;;;;;;;21.48;17.08;;;11.70;99.90;;;;;;5071282;28;20136;-68
2021/04/18 09:19:53;;;;;;;20.35;16.35;;;11.80;99.90;;;;;;5056211;28;20041;-67
2021/04/18 09:22:23;;;;;;;21.92;17.13;;;12.00;99.90;;;;;;5038713;28;20042;-67
2021/04/18 09:24:54;;;;;;;19.45;16.23;;;11.70;99.90;;;;;;5054172;28;20052;-69
2021/04/18 09:27:31;;;;;;;18.67;16.15;;;11.90;99.90;;;;;;5052287;28;20055;-69
2021/04/18 09:30:02;;;;;;;20.05;16.40;;;12.10;99.90;;;;;;5051322;28;20557;-71
2021/04/18 09:32:32;;;;;;;21.77;16.38;;;12.30;99.90;;;;;;5050679;28;20045;-69
2021/04/18 09:34:59;;;;;;;20.65;15.43;;;12.20;99.90;;;;;;5048660;28;20388;-70
2021/04/18 09:37:33;;;;;;;21.20;17.23;;;12.20;99.90;;;;;;5053363;28;20041;-69
2021/04/18 09:40:06;;;;;;;20.23;16.00;;;12.20;99.90;;;;;;5052802;28;20094;-69
2021/04/18 09:42:35;;;;;;;22.30;16.50;;;12.10;99.90;;;;;;5050260;28;20048;-68
2021/04/18 09:45:22;;;;;;;21.25;16.45;;;12.30;99.90;;;;;;5058499;28;20049;-69
2021/04/18 09:47:57;;;;;;;20.02;15.65;;;12.50;99.90;;;;;;5049631;28;20049;-69
2021/04/18 09:50:30;;;;;;;21.20;16.60;;;12.60;99.90;;;;;;5053107;28;20411;-69
2021/04/18 09:53:18;;;;;;;22.42;17.60;;;12.50;99.90;;;;;;5034078;28;20049;-69
2021/04/18 09:55:53;;;;;;;19.52;17.40;;;12.30;99.90;;;;;;5053246;28;20118;-69
2021/04/18 09:58:42;;;;;;;18.55;16.52;;;12.30;99.90;;;;;;5053428;28;20052;-68
2021/04/18 10:01:31;;;;;;;22.58;17.23;;;12.20;99.90;;;;;;5035682;28;20048;-68
2021/04/18 10:03:58;;;;;;;22.48;17.92;;;12.20;99.90;;;;;;5053361;28;20128;-68
2021/04/18 10:06:43;;;;;;;23.20;17.98;;;12.00;99.90;;;;;;5051797;28;20415;-69
2021/04/18 10:09:09;;;;;;;22.50;17.80;;;11.70;99.90;;;;;;5053063;28;20057;-69
2021/04/18 10:11:36;;;;;;;19.38;17.08;;;11.60;99.90;;;;;;5052889;28;20053;-70
2021/04/18 10:14:05;;;;;;;19.95;16.23;;;11.70;99.90;;;;;;5053150;28;20041;-69
2021/04/18 10:16:41;;;;;;;21.55;16.90;;;11.60;99.90;;;;;;5050756;28;20087;-69
2021/04/18 10:19:18;;;;;;;19.80;16.58;;;11.50;99.90;;;;;;5034403;28;20377;-69
2021/04/18 10:22:03;;;;;;;19.55;16.25;;;11.40;99.90;;;;;;5037358;28;20045;-69
2021/04/18 10:24:32;;;;;;;20.48;17.17;;;11.20;99.90;;;;;;5037278;28;20099;-69
2021/04/18 10:27:19;;;;;;;22.25;17.27;;;11.30;99.90;;;;;;5037626;28;20644;-69
2021/04/18 10:29:48;;;;;;;21.33;17.10;;;11.30;99.90;;;;;;5039693;28;20049;-69
2021/04/18 10:32:17;;;;;;;24.05;17.48;;;11.00;99.90;;;;;;5039751;28;20041;-69
2021/04/18 10:34:46;;;;;;;24.67;18.30;;;11.10;99.90;;;;;;5047163;28;20045;-68
2021/04/18 10:37:13;;;;;;;22.10;17.67;;;11.00;99.90;;;;;;5049657;28;20466;-69
2021/04/18 10:39:40;;;;;;;24.92;18.85;;;11.00;99.90;;;;;;5050978;28;20381;-69
2021/04/18 10:42:08;;;;;;;22.58;18.73;;;11.10;99.90;;;;;;5052745;28;20495;-69
2021/04/18 10:44:35;;;;;;;28.83;18.90;;;10.80;99.90;;;;;;5053265;28;20044;-69
2021/04/18 10:47:05;;;;;;;33.75;21.73;;;11.00;99.90;;;;;;5041324;28;20072;-69
2021/04/18 10:49:33;;;;;;;26.40;20.63;;;11.10;99.90;;;;;;5037717;28;20099;-69
2021/04/18 10:52:01;;;;;;;26.15;20.60;;;11.10;99.90;;;;;;5035762;28;20140;-70
2021/04/18 10:54:28;;;;;;;26.83;20.02;;;11.30;99.90;;;;;;5038632;28;20049;-68
2021/04/18 10:56:55;;;;;;;24.75;19.08;;;11.40;99.90;;;;;;5034146;28;20052;-69
2021/04/18 10:59:22;;;;;;;26.17;19.98;;;11.70;99.90;;;;;;5036693;28;20049;-69
2021/04/18 11:01:50;;;;;;;30.92;20.10;;;11.90;99.90;;;;;;5051663;28;20132;-69
2021/04/18 11:04:19;;;;;;;29.77;20.60;;;12.10;99.90;;;;;;5034570;28;20470;-68
2021/04/18 11:06:45;;;;;;;27.60;19.63;;;12.30;99.90;;;;;;5050509;28;20079;-69
2021/04/18 11:09:13;;;;;;;26.13;19.52;;;12.80;99.90;;;;;;5052522;28;20399;-69
2021/04/18 11:11:40;;;;;;;31.10;20.63;;;13.10;99.90;;;;;;5044653;28;20041;-67
2021/04/18 11:14:07;;;;;;;27.60;18.95;;;13.00;99.90;;;;;;5051871;28;20513;-69
2021/04/18 11:16:34;;;;;;;25.77;19.48;;;13.20;99.90;;;;;;5049982;28;20052;-69
2021/04/18 11:19:02;;;;;;;22.90;18.00;;;13.30;99.90;;;;;;5050631;28;20056;-69
2021/04/18 11:21:29;;;;;;;23.00;18.50;;;13.50;99.90;;;;;;5048811;28;20086;-68
2021/04/18 11:23:57;;;;;;;22.35;18.27;;;13.50;99.90;;;;;;5051844;28;20405;-68
2021/04/18 11:26:25;;;;;;;23.00;18.38;;;13.20;99.90;;;;;;5048134;28;20168;-68
2021/04/18 11:28:52;;;;;;;24.85;18.50;;;13.10;99.90;;;;;;5048488;28;20056;-70
2021/04/18 11:31:19;;;;;;;24.45;19.38;;;13.00;99.90;;;;;;5049130;28;20069;-70
2021/04/18 11:33:46;;;;;;;23.67;18.48;;;12.70;99.90;;;;;;5049899;28;20051;-69
2021/04/18 11:36:15;;;;;;;24.60;19.50;;;12.70;99.90;;;;;;5051070;28;20458;-69
2021/04/18 11:38:42;;;;;;;24.25;18.52;;;12.80;99.90;;;;;;5051897;28;20186;-68
2021/04/18 11:41:10;;;;;;;20.73;17.70;;;12.80;99.90;;;;;;5052688;28;20045;-69
2021/04/18 11:43:50;;;;;;;25.23;18.20;;;13.10;99.90;;;;;;5053884;28;20517;-71
2021/04/18 11:46:18;;;;;;;22.38;17.42;;;13.50;99.90;;;;;;5052632;28;20079;-70
2021/04/18 11:48:45;;;;;;;23.85;17.80;;;13.90;99.90;;;;;;5046338;28;20129;-69
2021/04/18 11:51:14;;;;;;;24.92;18.95;;;14.50;99.90;;;;;;5035474;28;20528;-69
2021/04/18 11:53:41;;;;;;;27.42;18.92;;;14.90;99.90;;;;;;5050833;28;20051;-68
2021/04/18 11:56:09;;;;;;;22.15;19.40;;;14.60;99.90;;;;;;5036731;28;20096;-68
2021/04/18 11:58:36;;;;;;;22.67;18.80;;;14.70;99.90;;;;;;5052051;28;20518;-68
2021/04/18 12:01:05;;;;;;;24.00;18.73;;;14.90;99.90;;;;;;5050864;28;20060;-69
2021/04/18 12:03:32;;;;;;;23.73;18.00;;;14.90;99.90;;;;;;5035843;28;20048;-68
2021/04/18 12:06:00;;;;;;;23.60;18.17;;;14.80;99.90;;;;;;5048989;28;20095;-68
2021/04/18 12:08:31;;;;;;;21.58;18.10;;;14.90;99.90;;;;;;5045832;28;20042;-68
2021/04/18 12:10:58;;;;;;;22.88;18.20;;;15.30;99.90;;;;;;5036604;28;20057;-68
2021/04/18 12:13:25;;;;;;;22.50;17.30;;;15.50;99.90;;;;;;5050050;28;20053;-68
2021/04/18 12:15:52;;;;;;;24.08;18.17;;;16.10;99.90;;;;;;5038937;28;20077;-68
2021/04/18 12:18:21;;;;;;;24.23;17.40;;;17.00;99.90;;;;;;5050157;28;20333;-68
2021/04/18 12:20:48;;;;;;;21.92;17.55;;;17.70;99.90;;;;;;5043555;28;20479;-69
2021/04/18 12:23:16;;;;;;;21.80;18.88;;;18.50;99.90;;;;;;5048861;28;20045;-68
2021/04/18 12:25:43;;;;;;;20.30;17.40;;;18.50;99.90;;;;;;5051003;28;20119;-68
2021/04/18 12:28:11;;;;;;;23.83;18.60;;;18.10;99.90;;;;;;5048969;28;20041;-69
2021/04/18 12:30:39;;;;;;;20.63;17.27;;;17.80;99.90;;;;;;5033654;28;20041;-69
2021/04/18 12:33:06;;;;;;;19.42;15.80;;;18.20;99.90;;;;;;5034767;28;20076;-68
2021/04/18 12:35:33;;;;;;;20.52;16.60;;;18.50;99.90;;;;;;5046669;28;20415;-68
2021/04/18 12:38:00;;;;;;;20.48;15.88;;;18.90;99.20;;;;;;5044108;28;20103;-69
2021/04/18 12:40:27;;;;;;;20.42;17.23;;;18.60;99.50;;;;;;5055996;28;20053;-68
2021/04/18 12:42:54;;;;;;;22.20;18.45;;;18.70;98.60;;;;;;5055601;28;20045;-69
2021/04/18 12:45:22;;;;;;;20.45;17.67;;;18.40;98.30;;;;;;5058845;28;20045;-69
2021/04/18 12:47:48;;;;;;;19.05;16.60;;;18.10;98.80;;;;;;5054695;28;20044;-69